createdAt,value
2019-03-31T00:01:08.343Z,100732.00
2019-03-31T00:03:36.022Z,100731.77
2019-03-31T00:06:06.183Z,100737.55
2019-03-31T00:08:36.247Z,100739.38
2019-03-31T00:11:06.543Z,100732.63
2019-03-31T00:13:36.697Z,100733.20
2019-03-31T00:16:06.879Z,100737.05
2019-03-31T00:18:36.912Z,100731.70
2019-03-31T00:21:07.203Z,100730.30
2019-03-31T00:23:37.183Z,100736.28
2019-03-31T00:26:07.361Z,100732.80
2019-03-31T00:28:37.504Z,100738.92
2019-03-31T00:31:21.155Z,100742.37
2019-03-31T00:33:39.844Z,100728.02
2019-03-31T00:36:10.132Z,100732.56
2019-03-31T00:38:40.417Z,100732.21
2019-03-31T00:41:10.371Z,100728.06
2019-03-31T00:43:40.549Z,100730.24
2019-03-31T00:46:10.630Z,100733.41
2019-03-31T00:48:40.877Z,100731.37
2019-03-31T00:51:11.049Z,100737.34
2019-03-31T00:53:41.322Z,100736.98
2019-03-31T00:56:11.506Z,100741.84
2019-03-31T00:58:41.763Z,100734.83
2019-03-31T01:01:35.876Z,100734.52
2019-03-31T01:03:57.067Z,100739.59
2019-03-31T01:06:27.418Z,100731.30
2019-03-31T01:08:57.680Z,100738.25
2019-03-31T01:11:28.262Z,100738.87
2019-03-31T01:13:58.557Z,100725.52
2019-03-31T01:16:28.618Z,100734.16
2019-03-31T01:18:58.808Z,100729.63
2019-03-31T01:21:29.069Z,100725.07
2019-03-31T01:23:59.148Z,100729.44
2019-03-31T01:26:29.519Z,100730.92
2019-03-31T01:29:00.367Z,100732.27
2019-03-31T01:31:30.674Z,100735.97
2019-03-31T01:34:00.940Z,100734.87
2019-03-31T01:36:31.008Z,100736.97
2019-03-31T01:39:01.324Z,100743.30
2019-03-31T01:41:31.606Z,100737.94
2019-03-31T01:44:01.822Z,100740.20
2019-03-31T01:46:32.219Z,100745.09
2019-03-31T01:49:02.290Z,100740.47
2019-03-31T01:51:32.366Z,100746.88
2019-03-31T01:54:02.593Z,100745.98
2019-03-31T01:56:32.801Z,100744.20
2019-03-31T01:59:03.181Z,100741.09
2019-03-31T02:01:33.212Z,100743.37
2019-03-31T02:04:03.692Z,100739.37
2019-03-31T02:06:34.067Z,100744.61
2019-03-31T02:09:04.783Z,100737.49
2019-03-31T02:11:35.148Z,100741.89
2019-03-31T02:14:05.325Z,100736.42
2019-03-31T02:16:35.518Z,100739.80
2019-03-31T02:19:05.783Z,100742.47
2019-03-31T02:21:35.864Z,100746.61
2019-03-31T02:24:06.119Z,100739.45
2019-03-31T02:26:36.418Z,100738.37
2019-03-31T02:29:06.618Z,100737.75
2019-03-31T02:31:36.715Z,100738.73
2019-03-31T02:34:06.797Z,100733.98
2019-03-31T02:36:37.028Z,100741.89
2019-03-31T02:39:07.173Z,100733.44
2019-03-31T02:41:37.423Z,100742.41
2019-03-31T02:44:07.573Z,100736.02
2019-03-31T02:46:37.848Z,100734.91
2019-03-31T02:49:08.087Z,100736.98
2019-03-31T02:51:38.368Z,100733.12
2019-03-31T02:54:08.542Z,100741.61
2019-03-31T02:56:38.702Z,100743.16
2019-03-31T02:59:08.853Z,100743.06
2019-03-31T03:01:39.153Z,100736.53
2019-03-31T03:04:09.317Z,100737.51
2019-03-31T03:06:39.585Z,100738.71
2019-03-31T03:09:09.790Z,100737.15
2019-03-31T03:11:40.011Z,100738.38
2019-03-31T03:14:10.213Z,100733.44
2019-03-31T03:16:40.488Z,100737.56
2019-03-31T03:19:10.789Z,100736.94
2019-03-31T03:21:40.927Z,100736.94
2019-03-31T03:24:11.123Z,100739.97
2019-03-31T03:26:41.409Z,100737.20
2019-03-31T03:29:11.632Z,100729.91
2019-03-31T03:31:41.914Z,100730.05
2019-03-31T03:34:12.103Z,100733.58
2019-03-31T03:36:43.574Z,100731.78
2019-03-31T03:39:14.045Z,100733.11
2019-03-31T03:41:44.192Z,100742.67
2019-03-31T03:44:14.417Z,100734.54
2019-03-31T03:46:44.689Z,100739.27
2019-03-31T03:49:15.077Z,100744.63
2019-03-31T03:51:45.639Z,100740.39
2019-03-31T03:54:15.813Z,100738.80
2019-03-31T03:56:46.299Z,100739.77
2019-03-31T03:59:16.471Z,100742.55
2019-03-31T04:01:46.775Z,100734.69
2019-03-31T04:04:17.015Z,100731.08
2019-03-31T04:06:47.306Z,100728.79
2019-03-31T04:09:17.470Z,100738.33
2019-03-31T04:11:47.739Z,100730.46
2019-03-31T04:14:17.918Z,100732.05
2019-03-31T04:16:48.253Z,100728.91
2019-03-31T04:19:18.447Z,100725.89
2019-03-31T04:21:48.709Z,100721.89
2019-03-31T04:24:18.874Z,100726.35
2019-03-31T04:26:49.150Z,100732.17
2019-03-31T04:29:19.333Z,100729.15
2019-03-31T04:31:49.600Z,100733.27
2019-03-31T04:34:19.762Z,100735.42
2019-03-31T04:36:50.053Z,100731.44
2019-03-31T04:39:20.235Z,100728.53
2019-03-31T04:41:50.499Z,100731.89
2019-03-31T04:44:20.664Z,100736.25
2019-03-31T04:46:50.938Z,100739.97
2019-03-31T04:49:20.996Z,100729.57
2019-03-31T04:51:51.269Z,100734.05
2019-03-31T04:54:21.353Z,100731.98
2019-03-31T04:56:51.603Z,100732.35
2019-03-31T04:59:21.781Z,100731.27
2019-03-31T05:01:52.039Z,100734.29
2019-03-31T05:04:22.233Z,100734.53
2019-03-31T05:06:52.539Z,100728.84
2019-03-31T05:09:22.803Z,100726.67
2019-03-31T05:11:53.086Z,100726.79
2019-03-31T05:14:23.338Z,100736.38
2019-03-31T05:16:53.609Z,100731.05
2019-03-31T05:19:23.875Z,100738.06
2019-03-31T05:21:54.141Z,100740.97
2019-03-31T05:24:24.245Z,100737.34
2019-03-31T05:26:54.481Z,100746.77
2019-03-31T05:29:24.685Z,100747.28
2019-03-31T05:31:54.937Z,100745.36
2019-03-31T05:34:25.122Z,100749.34
2019-03-31T05:36:55.295Z,100750.33
2019-03-31T05:39:25.452Z,100757.45
2019-03-31T05:41:55.706Z,100754.88
2019-03-31T05:44:25.904Z,100750.86
2019-03-31T05:46:56.148Z,100756.88
2019-03-31T05:49:26.362Z,100762.05
2019-03-31T05:51:56.619Z,100765.86
2019-03-31T05:54:26.685Z,100767.59
2019-03-31T05:56:56.902Z,100766.92
2019-03-31T05:59:27.181Z,100765.04
2019-03-31T06:01:57.373Z,100771.60
2019-03-31T06:04:33.377Z,100771.88
2019-03-31T06:06:59.579Z,100771.38
2019-03-31T06:09:29.681Z,100771.71
2019-03-31T06:11:59.876Z,100775.29
2019-03-31T06:14:30.116Z,100777.56
2019-03-31T06:17:00.204Z,100773.73
2019-03-31T06:19:30.475Z,100773.97
2019-03-31T06:22:00.668Z,100774.66
2019-03-31T06:24:30.934Z,100776.83
2019-03-31T06:27:01.120Z,100781.59
2019-03-31T06:29:31.375Z,100781.05
2019-03-31T06:32:01.560Z,100775.73
2019-03-31T06:34:31.915Z,100776.17
2019-03-31T06:37:02.111Z,100773.85
2019-03-31T06:39:34.200Z,100779.55
2019-03-31T06:42:04.157Z,100780.05
2019-03-31T06:44:34.350Z,100781.14
2019-03-31T06:47:04.508Z,100785.42
2019-03-31T06:49:34.787Z,100784.02
2019-03-31T06:52:05.082Z,100784.09
2019-03-31T06:54:35.223Z,100788.09
2019-03-31T06:57:05.394Z,100790.74
2019-03-31T06:59:35.691Z,100791.45
2019-03-31T07:02:05.840Z,100788.62
2019-03-31T07:04:36.130Z,100791.25
2019-03-31T07:07:06.328Z,100799.43
2019-03-31T07:09:36.567Z,100798.71
2019-03-31T07:12:06.760Z,100800.64
2019-03-31T07:14:37.032Z,100798.69
2019-03-31T07:17:07.090Z,100800.73
2019-03-31T07:19:37.326Z,100806.59
2019-03-31T07:22:07.554Z,100802.16
2019-03-31T07:24:37.776Z,100803.73
2019-03-31T07:27:08.101Z,100813.63
2019-03-31T07:29:38.351Z,100815.21
2019-03-31T07:32:08.498Z,100808.44
2019-03-31T07:34:38.808Z,100806.52
2019-03-31T07:37:08.968Z,100798.16
2019-03-31T07:39:39.379Z,100804.02
2019-03-31T07:42:09.756Z,100801.43
2019-03-31T07:44:40.403Z,100805.38
2019-03-31T07:47:10.572Z,100808.00
2019-03-31T07:49:40.817Z,100806.50
2019-03-31T07:52:11.133Z,100806.84
2019-03-31T07:54:41.394Z,100807.78
2019-03-31T07:57:11.573Z,100814.02
2019-03-31T07:59:41.869Z,100819.78
2019-03-31T08:02:12.096Z,100819.22
2019-03-31T08:04:42.393Z,100823.20
2019-03-31T08:07:13.568Z,100814.19
2019-03-31T08:09:43.949Z,100819.67
2019-03-31T08:12:14.111Z,100821.03
2019-03-31T08:14:44.375Z,100820.12
2019-03-31T08:17:14.587Z,100819.28
2019-03-31T08:19:44.864Z,100827.47
2019-03-31T08:22:15.034Z,100831.88
2019-03-31T08:24:45.373Z,100829.97
2019-03-31T08:27:15.780Z,100836.65
2019-03-31T08:29:55.412Z,100839.09
2019-03-31T08:32:18.245Z,100841.32
2019-03-31T08:34:48.213Z,100843.87
2019-03-31T08:37:18.243Z,100834.61
2019-03-31T08:39:48.207Z,100841.77
2019-03-31T08:42:18.170Z,100840.56
2019-03-31T08:44:48.175Z,100830.03
2019-03-31T08:47:18.118Z,100832.67
2019-03-31T08:49:48.094Z,100833.59
2019-03-31T08:52:18.009Z,100833.34
2019-03-31T08:54:47.996Z,100836.85
2019-03-31T08:57:17.920Z,100836.71
2019-03-31T08:59:47.903Z,100849.38
2019-03-31T09:02:29.621Z,100841.25
2019-03-31T09:04:59.603Z,100844.48
2019-03-31T09:07:29.564Z,100838.55
2019-03-31T09:09:59.528Z,100835.09
2019-03-31T09:12:29.461Z,100834.27
2019-03-31T09:14:59.434Z,100839.42
2019-03-31T09:17:29.403Z,100834.39
2019-03-31T09:19:59.449Z,100841.93
2019-03-31T09:22:29.386Z,100833.84
2019-03-31T09:24:59.377Z,100829.87
2019-03-31T09:27:29.278Z,100837.63
2019-03-31T09:29:59.236Z,100834.88
2019-03-31T09:32:29.164Z,100838.25
2019-03-31T09:34:59.111Z,100840.14
2019-03-31T09:37:29.159Z,100842.39
2019-03-31T09:39:59.139Z,100838.23
2019-03-31T09:42:29.076Z,100834.52
2019-03-31T09:44:59.104Z,100825.01
2019-03-31T09:47:29.079Z,100838.38
2019-03-31T09:49:59.068Z,100833.45
2019-03-31T09:52:29.178Z,100837.55
2019-03-31T09:54:59.323Z,100831.95
2019-03-31T09:57:29.423Z,100831.82
2019-03-31T09:59:59.391Z,100830.58
2019-03-31T10:02:29.351Z,100834.52
2019-03-31T10:04:59.401Z,100829.91
2019-03-31T10:07:29.372Z,100832.48
2019-03-31T10:09:59.342Z,100832.20
2019-03-31T10:12:30.234Z,100831.29
2019-03-31T10:15:00.409Z,100835.53
2019-03-31T10:17:30.515Z,100830.10
2019-03-31T10:20:00.503Z,100820.94
2019-03-31T10:22:30.433Z,100818.37
2019-03-31T10:25:01.347Z,100809.52
2019-03-31T10:27:31.340Z,100808.88
2019-03-31T10:30:01.303Z,100802.61
2019-03-31T10:32:31.229Z,100797.73
2019-03-31T10:35:01.201Z,100798.74
2019-03-31T10:37:31.139Z,100789.83
2019-03-31T10:40:01.167Z,100787.95
2019-03-31T10:42:31.097Z,100781.48
2019-03-31T10:45:01.070Z,100779.87
2019-03-31T10:47:31.001Z,100785.02
2019-03-31T10:50:00.965Z,100786.84
2019-03-31T10:52:30.921Z,100785.31
2019-03-31T10:55:00.977Z,100782.50
2019-03-31T10:57:30.913Z,100783.30
2019-03-31T11:00:00.883Z,100774.98
2019-03-31T11:02:30.798Z,100789.16
2019-03-31T11:05:00.768Z,100779.73
2019-03-31T11:07:30.729Z,100774.42
2019-03-31T11:10:00.733Z,100785.82
2019-03-31T11:12:30.658Z,100784.66
2019-03-31T11:15:00.668Z,100788.81
2019-03-31T11:17:30.586Z,100788.41
2019-03-31T11:20:01.035Z,100785.49
2019-03-31T11:22:36.770Z,100780.68
2019-03-31T11:25:20.179Z,100782.27
2019-03-31T11:27:38.743Z,100784.20
2019-03-31T11:30:08.809Z,100783.06
2019-03-31T11:32:38.764Z,100780.41
2019-03-31T11:35:08.823Z,100776.12
2019-03-31T11:37:38.824Z,100772.03
2019-03-31T11:40:09.058Z,100768.38
2019-03-31T11:42:39.042Z,100771.98
2019-03-31T11:45:08.988Z,100768.84
2019-03-31T11:47:38.964Z,100770.45
2019-03-31T11:50:09.177Z,100769.89
2019-03-31T11:52:39.297Z,100770.95
2019-03-31T11:55:09.455Z,100766.70
2019-03-31T11:57:39.449Z,100762.40
2019-03-31T12:00:14.048Z,100768.52
2019-03-31T12:02:44.023Z,100756.03
2019-03-31T12:05:14.034Z,100759.16
2019-03-31T12:07:47.051Z,100760.55
2019-03-31T12:10:15.644Z,100755.05
2019-03-31T12:12:45.653Z,100754.00
2019-03-31T12:15:15.595Z,100738.90
2019-03-31T12:17:45.566Z,100742.48
2019-03-31T12:20:15.487Z,100738.57
2019-03-31T12:22:45.481Z,100732.04
2019-03-31T12:25:15.427Z,100734.55
2019-03-31T12:27:45.399Z,100723.00
2019-03-31T12:30:18.495Z,100723.66
2019-03-31T12:32:48.494Z,100724.69
2019-03-31T12:35:18.423Z,100723.48
2019-03-31T12:37:48.479Z,100726.70
2019-03-31T12:40:32.060Z,100716.80
2019-03-31T12:43:02.028Z,100721.16
2019-03-31T12:45:32.113Z,100721.10
2019-03-31T12:48:02.127Z,100725.02
2019-03-31T12:50:32.088Z,100712.09
2019-03-31T12:53:02.095Z,100713.41
2019-03-31T12:55:32.049Z,100711.33
2019-03-31T12:58:02.092Z,100706.85
2019-03-31T13:00:33.640Z,100699.37
2019-03-31T13:03:03.660Z,100701.14
2019-03-31T13:05:33.555Z,100695.84
2019-03-31T13:08:03.518Z,100698.41
2019-03-31T13:10:33.460Z,100684.80
2019-03-31T13:13:03.412Z,100686.05
2019-03-31T13:15:33.384Z,100688.75
2019-03-31T13:18:03.347Z,100675.69
2019-03-31T13:20:33.351Z,100678.93
2019-03-31T13:23:03.334Z,100674.81
2019-03-31T13:25:33.288Z,100676.25
2019-03-31T13:28:05.656Z,100674.55
2019-03-31T13:30:35.067Z,100683.21
2019-03-31T13:33:05.167Z,100668.33
2019-03-31T13:35:35.196Z,100671.55
2019-03-31T13:38:11.254Z,100663.20
2019-03-31T13:40:36.838Z,100666.80
2019-03-31T13:43:06.769Z,100659.17
2019-03-31T13:45:36.776Z,100652.23
2019-03-31T13:48:06.724Z,100659.51
2019-03-31T13:50:36.697Z,100658.59
2019-03-31T13:53:06.746Z,100654.52
2019-03-31T13:55:37.193Z,100651.86
2019-03-31T13:58:08.634Z,100654.69
2019-03-31T14:00:40.735Z,100647.09
2019-03-31T14:03:10.935Z,100657.20
2019-03-31T14:05:40.910Z,100655.38
2019-03-31T14:08:24.697Z,100652.02
2019-03-31T14:10:42.601Z,100653.02
2019-03-31T14:13:12.560Z,100647.47
2019-03-31T14:15:42.532Z,100648.81
2019-03-31T14:18:12.470Z,100645.62
2019-03-31T14:20:42.468Z,100647.79
2019-03-31T14:23:12.389Z,100646.56
2019-03-31T14:25:42.337Z,100648.41
2019-03-31T14:28:12.273Z,100640.92
2019-03-31T14:30:42.272Z,100637.63
2019-03-31T14:33:12.285Z,100637.59
2019-03-31T14:35:42.383Z,100631.40
2019-03-31T14:38:12.547Z,100633.39
2019-03-31T14:40:42.695Z,100634.88
2019-03-31T14:43:12.742Z,100632.38
2019-03-31T14:45:42.784Z,100637.28
2019-03-31T14:48:12.808Z,100639.70
2019-03-31T14:50:42.871Z,100636.09
2019-03-31T14:53:12.845Z,100635.76
2019-03-31T14:55:42.935Z,100640.89
2019-03-31T14:58:12.874Z,100641.79
2019-03-31T15:00:42.966Z,100645.12
2019-03-31T15:03:13.325Z,100641.42
2019-03-31T15:05:43.426Z,100638.52
2019-03-31T15:08:13.368Z,100645.72
2019-03-31T15:10:43.552Z,100644.91
2019-03-31T15:13:14.251Z,100649.95
2019-03-31T15:15:44.360Z,100648.10
2019-03-31T15:18:14.421Z,100646.87
2019-03-31T15:20:44.451Z,100639.62
2019-03-31T15:23:15.179Z,100646.91
2019-03-31T15:25:45.938Z,100649.26
2019-03-31T15:28:16.840Z,100649.70
2019-03-31T15:30:46.902Z,100649.63
2019-03-31T15:33:17.060Z,100653.13
2019-03-31T15:35:47.112Z,100655.49
2019-03-31T15:38:17.203Z,100662.42
2019-03-31T15:40:48.650Z,100660.02
2019-03-31T15:43:18.794Z,100654.72
2019-03-31T15:45:48.918Z,100664.20
2019-03-31T15:48:19.055Z,100677.70
2019-03-31T15:50:49.924Z,100676.17
2019-03-31T15:53:21.058Z,100674.50
2019-03-31T15:55:51.891Z,100685.45
2019-03-31T15:58:22.850Z,100683.75
2019-03-31T16:00:53.499Z,100680.39
2019-03-31T16:03:23.732Z,100684.77
2019-03-31T16:05:54.005Z,100681.08
2019-03-31T16:08:23.570Z,100696.17
2019-03-31T16:10:53.207Z,100695.80
2019-03-31T16:13:22.918Z,100683.95
2019-03-31T16:15:52.720Z,100682.89
2019-03-31T16:18:22.378Z,100680.57
2019-03-31T16:20:52.150Z,100686.67
2019-03-31T16:23:21.827Z,100681.59
2019-03-31T16:25:55.338Z,100677.55
2019-03-31T16:28:25.117Z,100676.39
2019-03-31T16:30:54.806Z,100667.70
2019-03-31T16:33:24.517Z,100669.43
2019-03-31T16:35:54.375Z,100659.03
2019-03-31T16:38:25.815Z,100657.83
2019-03-31T16:40:55.364Z,100661.66
2019-03-31T16:43:25.136Z,100654.44
2019-03-31T16:45:54.794Z,100659.54
2019-03-31T16:48:24.557Z,100659.60
2019-03-31T16:50:54.113Z,100662.93
2019-03-31T16:53:23.865Z,100653.87
2019-03-31T16:55:53.517Z,100660.31
2019-03-31T16:58:23.155Z,100662.30
2019-03-31T17:00:52.800Z,100662.24
2019-03-31T17:03:22.457Z,100664.39
2019-03-31T17:05:52.140Z,100668.16
2019-03-31T17:08:21.758Z,100670.41
2019-03-31T17:10:51.401Z,100672.83
2019-03-31T17:13:20.958Z,100661.55
2019-03-31T17:15:50.651Z,100666.65
2019-03-31T17:18:20.421Z,100668.33
2019-03-31T17:20:51.043Z,100668.89
2019-03-31T17:23:20.740Z,100671.08
2019-03-31T17:25:50.207Z,100668.10
2019-03-31T17:28:19.772Z,100672.20
2019-03-31T17:30:50.296Z,100672.97
2019-03-31T17:33:19.933Z,100678.31
2019-03-31T17:35:49.668Z,100671.08
2019-03-31T17:38:19.333Z,100671.99
2019-03-31T17:40:48.978Z,100679.97
2019-03-31T17:43:18.759Z,100674.96
2019-03-31T17:45:48.407Z,100679.71
2019-03-31T17:48:17.972Z,100692.85
2019-03-31T17:50:47.637Z,100691.00
2019-03-31T17:53:17.267Z,100688.50
2019-03-31T17:55:50.256Z,100689.14
2019-03-31T17:58:21.275Z,100694.87
2019-03-31T18:00:51.053Z,100693.87
2019-03-31T18:03:20.730Z,100701.28
2019-03-31T18:05:50.203Z,100701.27
2019-03-31T18:08:20.600Z,100710.55
2019-03-31T18:10:50.287Z,100711.59
2019-03-31T18:13:20.191Z,100709.38
2019-03-31T18:15:49.841Z,100721.73
2019-03-31T18:18:19.691Z,100723.53
2019-03-31T18:20:49.491Z,100731.77
2019-03-31T18:23:19.405Z,100733.63
2019-03-31T18:25:49.097Z,100743.94
2019-03-31T18:28:18.831Z,100747.53
2019-03-31T18:30:48.400Z,100748.66
2019-03-31T18:33:18.057Z,100759.19
2019-03-31T18:35:47.727Z,100758.22
2019-03-31T18:38:17.374Z,100765.36
2019-03-31T18:40:47.180Z,100767.76
2019-03-31T18:43:17.001Z,100760.70
2019-03-31T18:45:46.635Z,100761.31
2019-03-31T18:48:16.442Z,100768.47
2019-03-31T18:50:46.090Z,100783.27
2019-03-31T18:53:21.660Z,100784.27
2019-03-31T18:56:08.991Z,100787.34
2019-03-31T18:59:03.370Z,100789.33
2019-03-31T19:01:54.892Z,100794.82
2019-03-31T19:04:52.770Z,100804.37
2019-03-31T19:07:41.314Z,100809.39
2019-03-31T19:10:30.508Z,100806.98
2019-03-31T19:13:31.222Z,100811.27
2019-03-31T19:16:19.779Z,100812.29
2019-03-31T19:19:11.532Z,100816.25
2019-03-31T19:21:56.472Z,100818.52
2019-03-31T19:24:45.914Z,100814.23
2019-03-31T19:27:33.622Z,100821.16
2019-03-31T19:30:16.797Z,100820.48
2019-03-31T19:33:11.281Z,100826.70
2019-03-31T19:36:09.674Z,100831.28
2019-03-31T19:38:55.828Z,100829.70
2019-03-31T19:41:41.390Z,100831.05
2019-03-31T19:44:33.081Z,100837.56
2019-03-31T19:47:20.353Z,100840.78
2019-03-31T19:50:11.828Z,100849.48
2019-03-31T19:52:52.177Z,100849.78
2019-03-31T19:55:47.795Z,100856.15
2019-03-31T19:58:35.122Z,100855.04
2019-03-31T20:01:22.749Z,100851.36
2019-03-31T20:04:01.984Z,100858.22
2019-03-31T20:06:49.511Z,100858.41
2019-03-31T20:09:28.851Z,100860.84
2019-03-31T20:12:18.524Z,100874.69
2019-03-31T20:14:55.793Z,100877.17
2019-03-31T20:18:00.245Z,100882.35
2019-03-31T20:20:38.643Z,100889.00
2019-03-31T20:23:27.306Z,100886.93
2019-03-31T20:26:34.191Z,100886.81
2019-03-31T20:29:12.299Z,100890.93
2019-03-31T20:31:58.492Z,100894.00
2019-03-31T20:34:45.720Z,100894.90
2019-03-31T20:37:42.970Z,100901.41
2019-03-31T20:40:31.525Z,100896.76
2019-03-31T20:43:28.995Z,100896.42
2019-03-31T20:45:58.730Z,100898.61
2019-03-31T20:48:28.611Z,100898.99
2019-03-31T20:50:58.354Z,100904.70
2019-03-31T20:53:28.073Z,100901.29
2019-03-31T20:55:57.789Z,100907.72
2019-03-31T20:58:27.367Z,100914.98
2019-03-31T21:00:57.136Z,100914.84
2019-03-31T21:03:26.794Z,100910.33
2019-03-31T21:05:56.462Z,100916.86
2019-03-31T21:08:26.217Z,100917.77
2019-03-31T21:10:55.976Z,100922.28
2019-03-31T21:13:25.736Z,100924.85
2019-03-31T21:15:55.410Z,100925.75
2019-03-31T21:18:25.078Z,100930.16
2019-03-31T21:20:54.614Z,100929.38
2019-03-31T21:23:24.255Z,100929.53
2019-03-31T21:25:53.930Z,100935.73
2019-03-31T21:28:23.695Z,100936.36
2019-03-31T21:30:53.328Z,100939.28
2019-03-31T21:33:23.014Z,100945.75
2019-03-31T21:35:52.664Z,100943.28
2019-03-31T21:38:22.723Z,100943.67
2019-03-31T21:40:52.411Z,100943.45
2019-03-31T21:43:22.064Z,100939.93
2019-03-31T21:45:52.154Z,100939.23
2019-03-31T21:48:22.192Z,100943.87
2019-03-31T21:50:51.950Z,100937.34
2019-03-31T21:53:22.196Z,100936.72
2019-03-31T21:55:51.885Z,100933.20
2019-03-31T21:58:22.303Z,100932.98
2019-03-31T22:00:58.509Z,100937.70
2019-03-31T22:03:28.017Z,100935.65
2019-03-31T22:05:57.789Z,100930.22
2019-03-31T22:08:27.471Z,100940.18
2019-03-31T22:10:57.139Z,100934.98
2019-03-31T22:13:27.083Z,100937.66
2019-03-31T22:15:56.772Z,100932.94
2019-03-31T22:18:26.393Z,100935.78
2019-03-31T22:20:55.956Z,100931.16
2019-03-31T22:23:25.599Z,100929.47
2019-03-31T22:25:55.367Z,100926.17
2019-03-31T22:28:24.966Z,100921.69
2019-03-31T22:30:54.582Z,100916.61
2019-03-31T22:33:24.150Z,100921.15
2019-03-31T22:36:11.236Z,100924.13
2019-03-31T22:38:40.750Z,100928.36
2019-03-31T22:41:10.312Z,100926.14
2019-03-31T22:43:39.893Z,100922.95
2019-03-31T22:46:09.456Z,100922.10
2019-03-31T22:48:39.050Z,100922.99
2019-03-31T22:51:08.709Z,100913.20
2019-03-31T22:53:38.223Z,100916.27
2019-03-31T22:56:07.826Z,100926.55
2019-03-31T22:58:37.368Z,100920.00
2019-03-31T23:01:06.832Z,100915.11
2019-03-31T23:03:36.494Z,100915.47
2019-03-31T23:06:06.058Z,100919.34
2019-03-31T23:08:35.611Z,100915.83
2019-03-31T23:11:05.175Z,100916.18
2019-03-31T23:13:34.797Z,100914.58
2019-03-31T23:16:04.383Z,100908.20
2019-03-31T23:18:34.058Z,100907.14
2019-03-31T23:21:03.770Z,100902.59
2019-03-31T23:23:33.556Z,100903.48
2019-03-31T23:26:03.243Z,100902.14
2019-03-31T23:28:32.877Z,100904.33
2019-03-31T23:31:03.812Z,100908.55
2019-03-31T23:33:33.497Z,100905.04
2019-03-31T23:36:03.168Z,100902.02
2019-03-31T23:38:32.813Z,100907.34
2019-03-31T23:41:02.400Z,100898.63
2019-03-31T23:43:31.860Z,100903.34
2019-03-31T23:46:01.799Z,100900.31
2019-03-31T23:48:31.587Z,100898.98
2019-03-31T23:51:01.246Z,100899.96
2019-03-31T23:53:30.928Z,100898.86
2019-03-31T23:56:00.563Z,100897.91
2019-03-31T23:58:30.137Z,100899.64
